sensor_id;sensor_type;location;lat;lon;timestamp;temperature;humidity
28959;DHT22;16066;0.000;0.000;2023-11-22T06:32:12;17.80;52.10
28959;DHT22;16066;0.000;0.000;2023-11-22T06:34:38;17.80;51.00
28959;DHT22;16066;0.000;0.000;2023-11-22T06:37:04;17.80;50.80
28959;DHT22;16066;0.000;0.000;2023-11-22T06:39:32;17.80;51.20
28959;DHT22;16066;0.000;0.000;2023-11-22T06:41:57;17.80;51.00
28959;DHT22;16066;0.000;0.000;2023-11-22T06:44:23;17.80;51.10
28959;DHT22;16066;0.000;0.000;2023-11-22T06:46:48;17.80;50.80
28959;DHT22;16066;0.000;0.000;2023-11-22T06:49:14;17.70;50.20
28959;DHT22;16066;0.000;0.000;2023-11-22T06:51:39;17.70;50.20
28959;DHT22;16066;0.000;0.000;2023-11-22T06:54:05;17.60;50.30
28959;DHT22;16066;0.000;0.000;2023-11-22T06:56:32;17.50;51.00
28959;DHT22;16066;0.000;0.000;2023-11-22T06:58:58;17.50;50.50
28959;DHT22;16066;0.000;0.000;2023-11-22T07:01:24;17.50;50.80
28959;DHT22;16066;0.000;0.000;2023-11-22T07:03:52;17.50;51.40
28959;DHT22;16066;0.000;0.000;2023-11-22T07:06:18;17.40;50.90
28959;DHT22;16066;0.000;0.000;2023-11-22T07:08:47;17.40;51.00
28959;DHT22;16066;0.000;0.000;2023-11-22T07:11:12;17.40;51.30
28959;DHT22;16066;0.000;0.000;2023-11-22T07:13:39;17.40;51.10
28959;DHT22;16066;0.000;0.000;2023-11-22T07:16:05;17.30;50.90
28959;DHT22;16066;0.000;0.000;2023-11-22T07:18:32;17.30;50.80
28959;DHT22;16066;0.000;0.000;2023-11-22T07:21:00;17.20;50.60
28959;DHT22;16066;0.000;0.000;2023-11-22T07:23:25;17.20;50.60
28959;DHT22;16066;0.000;0.000;2023-11-22T07:25:54;17.20;50.90
28959;DHT22;16066;0.000;0.000;2023-11-22T07:28:20;17.20;50.90
28959;DHT22;16066;0.000;0.000;2023-11-22T07:30:46;17.20;51.00
28959;DHT22;16066;0.000;0.000;2023-11-22T07:33:14;17.20;51.10
28959;DHT22;16066;0.000;0.000;2023-11-22T07:35:40;17.20;51.10
28959;DHT22;16066;0.000;0.000;2023-11-22T07:38:06;17.30;50.70
28959;DHT22;16066;0.000;0.000;2023-11-22T07:40:34;17.40;50.30
28959;DHT22;16066;0.000;0.000;2023-11-22T07:43:00;17.50;50.30
28959;DHT22;16066;0.000;0.000;2023-11-22T07:45:27;17.60;50.10
28959;DHT22;16066;0.000;0.000;2023-11-22T07:47:53;17.70;50.20
28959;DHT22;16066;0.000;0.000;2023-11-22T07:50:21;17.70;50.00
28959;DHT22;16066;0.000;0.000;2023-11-22T07:52:49;17.80;49.80
28959;DHT22;16066;0.000;0.000;2023-11-22T07:55:16;17.80;49.40
28959;DHT22;16066;0.000;0.000;2023-11-22T07:57:43;17.80;49.60
28959;DHT22;16066;0.000;0.000;2023-11-22T08:00:09;17.90;49.70
28959;DHT22;16066;0.000;0.000;2023-11-22T08:02:36;17.90;49.70
28959;DHT22;16066;0.000;0.000;2023-11-22T08:05:05;17.90;49.80
28959;DHT22;16066;0.000;0.000;2023-11-22T08:07:35;17.90;50.00
28959;DHT22;16066;0.000;0.000;2023-11-22T08:10:00;17.90;50.00
28959;DHT22;16066;0.000;0.000;2023-11-22T08:12:35;17.90;50.00
28959;DHT22;16066;0.000;0.000;2023-11-22T08:15:01;17.90;50.00
28959;DHT22;16066;0.000;0.000;2023-11-22T08:17:29;17.80;50.00
28959;DHT22;16066;0.000;0.000;2023-11-22T08:19:54;17.80;50.20
28959;DHT22;16066;0.000;0.000;2023-11-22T08:22:21;17.80;50.90
28959;DHT22;16066;0.000;0.000;2023-11-22T08:24:46;17.80;50.90
28959;DHT22;16066;0.000;0.000;2023-11-22T08:27:13;17.90;50.60
28959;DHT22;16066;0.000;0.000;2023-11-22T08:29:40;17.90;50.10
28959;DHT22;16066;0.000;0.000;2023-11-22T08:32:06;18.00;50.40
28959;DHT22;16066;0.000;0.000;2023-11-22T08:34:32;18.00;50.10
28959;DHT22;16066;0.000;0.000;2023-11-22T08:36:58;17.90;49.80
28959;DHT22;16066;0.000;0.000;2023-11-22T08:39:24;17.90;49.20
28959;DHT22;16066;0.000;0.000;2023-11-22T08:41:50;17.80;49.10
28959;DHT22;16066;0.000;0.000;2023-11-22T08:44:15;17.70;50.20
28959;DHT22;16066;0.000;0.000;2023-11-22T08:46:41;17.70;50.20
28959;DHT22;16066;0.000;0.000;2023-11-22T08:49:06;17.70;50.10
28959;DHT22;16066;0.000;0.000;2023-11-22T08:51:32;17.70;49.70
28959;DHT22;16066;0.000;0.000;2023-11-22T08:53:59;17.80;49.90
28959;DHT22;16066;0.000;0.000;2023-11-22T08:56:24;17.70;49.50
28959;DHT22;16066;0.000;0.000;2023-11-22T08:58:50;17.70;51.00
28959;DHT22;16066;0.000;0.000;2023-11-22T09:01:15;17.80;48.90
28959;DHT22;16066;0.000;0.000;2023-11-22T09:03:41;17.70;48.80
28959;DHT22;16066;0.000;0.000;2023-11-22T09:06:07;17.70;48.20
28959;DHT22;16066;0.000;0.000;2023-11-22T09:08:32;17.60;48.10
28959;DHT22;16066;0.000;0.000;2023-11-22T09:10:58;17.60;48.20
28959;DHT22;16066;0.000;0.000;2023-11-22T09:13:23;17.50;48.40
28959;DHT22;16066;0.000;0.000;2023-11-22T09:15:50;17.50;48.80
28959;DHT22;16066;0.000;0.000;2023-11-22T09:18:16;17.50;50.00
28959;DHT22;16066;0.000;0.000;2023-11-22T09:20:42;17.50;49.60
28959;DHT22;16066;0.000;0.000;2023-11-22T09:23:10;17.50;49.70
28959;DHT22;16066;0.000;0.000;2023-11-22T09:25:37;17.50;49.50
28959;DHT22;16066;0.000;0.000;2023-11-22T09:28:03;17.60;49.90
28959;DHT22;16066;0.000;0.000;2023-11-22T09:30:31;17.60;49.70
28959;DHT22;16066;0.000;0.000;2023-11-22T09:33:14;17.60;49.50
28959;DHT22;16066;0.000;0.000;2023-11-22T09:35:41;17.70;49.70
28959;DHT22;16066;0.000;0.000;2023-11-22T09:38:09;17.70;49.50
28959;DHT22;16066;0.000;0.000;2023-11-22T09:40:42;17.80;49.00
28959;DHT22;16066;0.000;0.000;2023-11-22T09:43:09;17.80;48.80
28959;DHT22;16066;0.000;0.000;2023-11-22T09:45:34;17.90;48.70
28959;DHT22;16066;0.000;0.000;2023-11-22T09:48:02;17.90;48.70
28959;DHT22;16066;0.000;0.000;2023-11-22T09:50:39;17.90;48.00
28959;DHT22;16066;0.000;0.000;2023-11-22T09:53:11;17.90;47.90
28959;DHT22;16066;0.000;0.000;2023-11-22T09:55:38;17.80;47.90
28959;DHT22;16066;0.000;0.000;2023-11-22T09:58:07;17.80;47.80
28959;DHT22;16066;0.000;0.000;2023-11-22T10:00:33;17.80;48.30
28959;DHT22;16066;0.000;0.000;2023-11-22T10:02:58;17.90;48.40
28959;DHT22;16066;0.000;0.000;2023-11-22T10:05:24;17.90;48.50
28959;DHT22;16066;0.000;0.000;2023-11-22T10:07:54;17.90;48.20
28959;DHT22;16066;0.000;0.000;2023-11-22T10:10:21;17.90;48.70
28959;DHT22;16066;0.000;0.000;2023-11-22T10:12:53;17.90;47.90
28959;DHT22;16066;0.000;0.000;2023-11-22T10:15:21;17.90;47.60
28959;DHT22;16066;0.000;0.000;2023-11-22T10:17:58;17.90;47.90
28959;DHT22;16066;0.000;0.000;2023-11-22T10:20:42;17.90;48.00
28959;DHT22;16066;0.000;0.000;2023-11-22T10:23:12;17.90;48.20
28959;DHT22;16066;0.000;0.000;2023-11-22T10:25:45;17.90;47.70
28959;DHT22;16066;0.000;0.000;2023-11-22T10:28:13;17.90;47.90
28959;DHT22;16066;0.000;0.000;2023-11-22T10:30:38;17.90;48.00
28959;DHT22;16066;0.000;0.000;2023-11-22T10:33:06;18.00;47.40
28959;DHT22;16066;0.000;0.000;2023-11-22T10:35:31;18.00;47.50
28959;DHT22;16066;0.000;0.000;2023-11-22T10:37:59;18.00;48.10
28959;DHT22;16066;0.000;0.000;2023-11-22T10:40:28;18.10;47.10
28959;DHT22;16066;0.000;0.000;2023-11-22T10:42:56;18.10;47.40
28959;DHT22;16066;0.000;0.000;2023-11-22T10:45:23;18.20;46.90
28959;DHT22;16066;0.000;0.000;2023-11-22T10:47:49;18.20;46.50
28959;DHT22;16066;0.000;0.000;2023-11-22T10:50:15;18.20;46.60
28959;DHT22;16066;0.000;0.000;2023-11-22T10:52:42;18.20;45.80
28959;DHT22;16066;0.000;0.000;2023-11-22T10:55:12;18.30;46.00
28959;DHT22;16066;0.000;0.000;2023-11-22T10:57:45;18.30;45.40
28959;DHT22;16066;0.000;0.000;2023-11-22T11:00:15;18.30;45.90
28959;DHT22;16066;0.000;0.000;2023-11-22T11:02:45;18.30;45.50
28959;DHT22;16066;0.000;0.000;2023-11-22T11:05:21;18.30;45.90
28959;DHT22;16066;0.000;0.000;2023-11-22T11:07:57;18.30;45.70
28959;DHT22;16066;0.000;0.000;2023-11-22T11:10:24;18.30;46.90
28959;DHT22;16066;0.000;0.000;2023-11-22T11:12:52;18.30;46.70
28959;DHT22;16066;0.000;0.000;2023-11-22T11:15:19;18.40;46.80
28959;DHT22;16066;0.000;0.000;2023-11-22T11:17:47;18.40;46.20
28959;DHT22;16066;0.000;0.000;2023-11-22T11:20:18;18.50;46.00
28959;DHT22;16066;0.000;0.000;2023-11-22T11:22:47;18.50;46.30
28959;DHT22;16066;0.000;0.000;2023-11-22T11:25:17;18.50;47.30
28959;DHT22;16066;0.000;0.000;2023-11-22T11:27:44;18.60;47.40
28959;DHT22;16066;0.000;0.000;2023-11-22T11:33:06;18.60;50.80
28959;DHT22;16066;0.000;0.000;2023-11-22T11:35:48;18.70;47.90
28959;DHT22;16066;0.000;0.000;2023-11-22T11:38:15;18.80;47.60
28959;DHT22;16066;0.000;0.000;2023-11-22T11:40:42;18.80;46.40
28959;DHT22;16066;0.000;0.000;2023-11-22T11:43:10;18.80;46.40
28959;DHT22;16066;0.000;0.000;2023-11-22T11:45:40;18.90;45.80
28959;DHT22;16066;0.000;0.000;2023-11-22T11:48:15;18.90;45.00
28959;DHT22;16066;0.000;0.000;2023-11-22T11:50:42;18.90;45.30
28959;DHT22;16066;0.000;0.000;2023-11-22T11:53:08;18.90;45.40
28959;DHT22;16066;0.000;0.000;2023-11-22T11:55:36;18.90;45.00
28959;DHT22;16066;0.000;0.000;2023-11-22T11:58:06;18.90;44.90
28959;DHT22;16066;0.000;0.000;2023-11-22T12:00:35;18.90;44.50
28959;DHT22;16066;0.000;0.000;2023-11-22T12:03:02;18.90;44.30
28959;DHT22;16066;0.000;0.000;2023-11-22T12:05:28;18.90;44.20
28959;DHT22;16066;0.000;0.000;2023-11-22T12:07:54;18.90;44.50
28959;DHT22;16066;0.000;0.000;2023-11-22T12:10:20;18.90;44.50
28959;DHT22;16066;0.000;0.000;2023-11-22T12:12:47;18.90;45.10
28959;DHT22;16066;0.000;0.000;2023-11-22T12:15:12;18.90;46.60
28959;DHT22;16066;0.000;0.000;2023-11-22T12:17:40;18.90;45.20
28959;DHT22;16066;0.000;0.000;2023-11-22T12:20:10;18.90;45.00
28959;DHT22;16066;0.000;0.000;2023-11-22T12:22:37;19.00;45.50
28959;DHT22;16066;0.000;0.000;2023-11-22T12:25:03;19.00;44.60
28959;DHT22;16066;0.000;0.000;2023-11-22T12:27:30;19.00;45.20
28959;DHT22;16066;0.000;0.000;2023-11-22T12:29:56;19.00;44.60
28959;DHT22;16066;0.000;0.000;2023-11-22T12:32:24;19.10;44.40
28959;DHT22;16066;0.000;0.000;2023-11-22T12:34:50;19.10;44.20
28959;DHT22;16066;0.000;0.000;2023-11-22T12:37:20;19.20;44.20
28959;DHT22;16066;0.000;0.000;2023-11-22T12:39:47;19.20;43.50
28959;DHT22;16066;0.000;0.000;2023-11-22T12:42:13;19.30;42.80
28959;DHT22;16066;0.000;0.000;2023-11-22T12:44:51;19.30;42.00
28959;DHT22;16066;0.000;0.000;2023-11-22T12:47:35;19.30;41.80
28959;DHT22;16066;0.000;0.000;2023-11-22T12:50:01;19.40;41.30
28959;DHT22;16066;0.000;0.000;2023-11-22T12:52:29;19.40;40.80
28959;DHT22;16066;0.000;0.000;2023-11-22T12:54:55;19.50;40.80
28959;DHT22;16066;0.000;0.000;2023-11-22T12:57:21;19.50;41.30
28959;DHT22;16066;0.000;0.000;2023-11-22T12:59:48;19.50;41.80
28959;DHT22;16066;0.000;0.000;2023-11-22T13:02:13;19.60;41.00
28959;DHT22;16066;0.000;0.000;2023-11-22T13:04:40;19.60;41.00
28959;DHT22;16066;0.000;0.000;2023-11-22T13:07:06;19.70;41.70
28959;DHT22;16066;0.000;0.000;2023-11-22T13:09:31;19.70;41.10
28959;DHT22;16066;0.000;0.000;2023-11-22T13:11:59;19.70;39.90
28959;DHT22;16066;0.000;0.000;2023-11-22T13:14:24;19.80;40.10
28959;DHT22;16066;0.000;0.000;2023-11-22T13:16:51;19.80;40.60
28959;DHT22;16066;0.000;0.000;2023-11-22T13:19:18;19.90;40.90
28959;DHT22;16066;0.000;0.000;2023-11-22T13:21:44;19.90;40.40
28959;DHT22;16066;0.000;0.000;2023-11-22T13:24:10;20.00;39.90
28959;DHT22;16066;0.000;0.000;2023-11-22T13:26:37;20.00;40.20
28959;DHT22;16066;0.000;0.000;2023-11-22T13:29:03;20.00;40.40
28959;DHT22;16066;0.000;0.000;2023-11-22T13:31:29;20.00;39.70
28959;DHT22;16066;0.000;0.000;2023-11-22T13:33:55;20.00;38.80
28959;DHT22;16066;0.000;0.000;2023-11-22T13:36:20;20.00;38.80
28959;DHT22;16066;0.000;0.000;2023-11-22T13:38:46;20.00;38.90
28959;DHT22;16066;0.000;0.000;2023-11-22T13:41:11;19.90;39.00
28959;DHT22;16066;0.000;0.000;2023-11-22T13:43:37;19.90;38.10
28959;DHT22;16066;0.000;0.000;2023-11-22T13:46:03;19.90;38.30
28959;DHT22;16066;0.000;0.000;2023-11-22T13:48:29;19.90;38.40
28959;DHT22;16066;0.000;0.000;2023-11-22T13:50:55;19.80;38.90
28959;DHT22;16066;0.000;0.000;2023-11-22T13:53:21;19.80;38.60
28959;DHT22;16066;0.000;0.000;2023-11-22T13:55:50;19.80;39.80
28959;DHT22;16066;0.000;0.000;2023-11-22T13:58:17;19.80;39.30
28959;DHT22;16066;0.000;0.000;2023-11-22T14:00:42;19.80;39.70
28959;DHT22;16066;0.000;0.000;2023-11-22T14:03:08;19.70;39.70
28959;DHT22;16066;0.000;0.000;2023-11-22T14:05:37;19.70;39.70
28959;DHT22;16066;0.000;0.000;2023-11-22T14:08:04;19.60;40.40
28959;DHT22;16066;0.000;0.000;2023-11-22T14:10:31;19.60;41.10
28959;DHT22;16066;0.000;0.000;2023-11-22T14:12:57;19.60;40.40
28959;DHT22;16066;0.000;0.000;2023-11-22T14:15:26;19.60;40.70
28959;DHT22;16066;0.000;0.000;2023-11-22T14:17:54;19.50;40.00
28959;DHT22;16066;0.000;0.000;2023-11-22T14:20:19;19.50;40.20
28959;DHT22;16066;0.000;0.000;2023-11-22T14:22:46;19.50;40.40
28959;DHT22;16066;0.000;0.000;2023-11-22T14:25:12;19.40;40.70
28959;DHT22;16066;0.000;0.000;2023-11-22T14:27:39;19.40;40.40
28959;DHT22;16066;0.000;0.000;2023-11-22T14:30:06;19.30;41.00
28959;DHT22;16066;0.000;0.000;2023-11-22T14:32:34;19.30;40.60
28959;DHT22;16066;0.000;0.000;2023-11-22T14:35:06;19.20;41.60
28959;DHT22;16066;0.000;0.000;2023-11-22T14:37:35;19.20;41.50
28959;DHT22;16066;0.000;0.000;2023-11-22T14:40:03;19.20;40.30
28959;DHT22;16066;0.000;0.000;2023-11-22T14:42:32;19.20;40.80
28959;DHT22;16066;0.000;0.000;2023-11-22T14:44:58;19.10;40.30
28959;DHT22;16066;0.000;0.000;2023-11-22T14:47:24;19.10;41.70
28959;DHT22;16066;0.000;0.000;2023-11-22T14:49:51;19.00;41.60
28959;DHT22;16066;0.000;0.000;2023-11-22T14:52:17;19.00;41.30
28959;DHT22;16066;0.000;0.000;2023-11-22T14:54:44;19.00;41.00
28959;DHT22;16066;0.000;0.000;2023-11-22T14:57:10;18.90;41.30
28959;DHT22;16066;0.000;0.000;2023-11-22T14:59:38;18.90;41.50
28959;DHT22;16066;0.000;0.000;2023-11-22T15:02:03;18.80;41.90
28959;DHT22;16066;0.000;0.000;2023-11-22T15:04:35;18.80;42.20
28959;DHT22;16066;0.000;0.000;2023-11-22T15:07:02;18.80;42.10
28959;DHT22;16066;0.000;0.000;2023-11-22T15:09:28;18.80;41.80
28959;DHT22;16066;0.000;0.000;2023-11-22T15:11:54;18.80;41.10
28959;DHT22;16066;0.000;0.000;2023-11-22T15:14:20;18.70;41.50
28959;DHT22;16066;0.000;0.000;2023-11-22T15:16:47;18.70;42.10
28959;DHT22;16066;0.000;0.000;2023-11-22T15:19:13;18.60;41.80
28959;DHT22;16066;0.000;0.000;2023-11-22T15:21:38;18.60;41.20
28959;DHT22;16066;0.000;0.000;2023-11-22T15:24:04;18.50;41.30
28959;DHT22;16066;0.000;0.000;2023-11-22T15:26:30;18.50;41.40
28959;DHT22;16066;0.000;0.000;2023-11-22T15:28:56;18.50;41.20
28959;DHT22;16066;0.000;0.000;2023-11-22T15:31:22;18.50;42.00
28959;DHT22;16066;0.000;0.000;2023-11-22T15:33:48;18.50;41.70
28959;DHT22;16066;0.000;0.000;2023-11-22T15:36:14;18.40;41.10
28959;DHT22;16066;0.000;0.000;2023-11-22T15:38:40;18.40;41.30
28959;DHT22;16066;0.000;0.000;2023-11-22T15:41:05;18.30;41.80
28959;DHT22;16066;0.000;0.000;2023-11-22T15:43:34;18.30;42.00
28959;DHT22;16066;0.000;0.000;2023-11-22T15:45:59;18.30;41.60
28959;DHT22;16066;0.000;0.000;2023-11-22T15:48:25;18.30;42.30
28959;DHT22;16066;0.000;0.000;2023-11-22T15:50:54;18.20;41.80
28959;DHT22;16066;0.000;0.000;2023-11-22T15:53:19;18.20;41.60
28959;DHT22;16066;0.000;0.000;2023-11-22T15:55:46;18.20;41.80
28959;DHT22;16066;0.000;0.000;2023-11-22T15:58:11;18.20;41.80
28959;DHT22;16066;0.000;0.000;2023-11-22T16:00:37;18.20;41.80
28959;DHT22;16066;0.000;0.000;2023-11-22T16:03:03;18.10;41.80
28959;DHT22;16066;0.000;0.000;2023-11-22T16:05:32;18.10;41.50
28959;DHT22;16066;0.000;0.000;2023-11-22T16:07:58;18.10;40.90
28959;DHT22;16066;0.000;0.000;2023-11-22T16:10:24;18.00;40.60
28959;DHT22;16066;0.000;0.000;2023-11-22T16:12:49;18.00;41.50
28959;DHT22;16066;0.000;0.000;2023-11-22T16:15:17;18.00;41.60
28959;DHT22;16066;0.000;0.000;2023-11-22T16:17:42;17.90;41.60
28959;DHT22;16066;0.000;0.000;2023-11-22T16:20:09;17.90;41.50
28959;DHT22;16066;0.000;0.000;2023-11-22T16:22:43;17.90;41.60
28959;DHT22;16066;0.000;0.000;2023-11-22T16:25:11;17.80;41.30
28959;DHT22;16066;0.000;0.000;2023-11-22T16:27:38;17.80;41.10
28959;DHT22;16066;0.000;0.000;2023-11-22T16:30:04;17.80;41.40
28959;DHT22;16066;0.000;0.000;2023-11-22T16:32:30;17.80;41.60
28959;DHT22;16066;0.000;0.000;2023-11-22T16:34:56;17.80;42.50
28959;DHT22;16066;0.000;0.000;2023-11-22T16:37:22;17.80;41.60
28959;DHT22;16066;0.000;0.000;2023-11-22T16:39:48;17.80;42.20
28959;DHT22;16066;0.000;0.000;2023-11-22T16:42:13;17.70;41.60
28959;DHT22;16066;0.000;0.000;2023-11-22T16:44:39;17.70;42.30
28959;DHT22;16066;0.000;0.000;2023-11-22T16:47:08;17.80;43.20
28959;DHT22;16066;0.000;0.000;2023-11-22T16:49:37;17.70;42.10
28959;DHT22;16066;0.000;0.000;2023-11-22T16:52:09;17.70;42.60
28959;DHT22;16066;0.000;0.000;2023-11-22T16:54:37;17.70;43.00
28959;DHT22;16066;0.000;0.000;2023-11-22T16:57:04;17.80;47.90
28959;DHT22;16066;0.000;0.000;2023-11-22T16:59:29;17.90;48.20
28959;DHT22;16066;0.000;0.000;2023-11-22T17:01:55;18.00;46.00
28959;DHT22;16066;0.000;0.000;2023-11-22T17:04:20;18.20;42.10
28959;DHT22;16066;0.000;0.000;2023-11-22T17:06:46;18.20;40.90
28959;DHT22;16066;0.000;0.000;2023-11-22T17:09:11;18.20;41.80
28959;DHT22;16066;0.000;0.000;2023-11-22T17:11:37;18.20;41.50
28959;DHT22;16066;0.000;0.000;2023-11-22T17:14:03;18.10;41.80
28959;DHT22;16066;0.000;0.000;2023-11-22T17:16:29;18.10;42.30
28959;DHT22;16066;0.000;0.000;2023-11-22T17:18:56;18.00;41.60
28959;DHT22;16066;0.000;0.000;2023-11-22T17:21:22;17.90;41.60
28959;DHT22;16066;0.000;0.000;2023-11-22T17:23:48;17.90;42.00
28959;DHT22;16066;0.000;0.000;2023-11-22T17:26:13;17.80;41.60
28959;DHT22;16066;0.000;0.000;2023-11-22T17:28:39;17.80;42.20
28959;DHT22;16066;0.000;0.000;2023-11-22T17:31:05;17.70;42.30
28959;DHT22;16066;0.000;0.000;2023-11-22T17:33:30;17.70;42.70
28959;DHT22;16066;0.000;0.000;2023-11-22T17:35:57;17.60;42.70
28959;DHT22;16066;0.000;0.000;2023-11-22T17:38:22;17.60;42.90
28959;DHT22;16066;0.000;0.000;2023-11-22T17:40:48;17.60;42.80
28959;DHT22;16066;0.000;0.000;2023-11-22T17:43:13;17.60;43.30
28959;DHT22;16066;0.000;0.000;2023-11-22T17:45:39;17.50;43.00
28959;DHT22;16066;0.000;0.000;2023-11-22T17:48:06;17.50;43.10
28959;DHT22;16066;0.000;0.000;2023-11-22T17:50:33;17.50;42.20
28959;DHT22;16066;0.000;0.000;2023-11-22T17:52:58;17.50;43.00
28959;DHT22;16066;0.000;0.000;2023-11-22T17:55:25;17.50;43.20
28959;DHT22;16066;0.000;0.000;2023-11-22T17:57:51;17.50;43.20
28959;DHT22;16066;0.000;0.000;2023-11-22T18:00:17;17.50;43.10
28959;DHT22;16066;0.000;0.000;2023-11-22T18:02:42;17.50;42.50
28959;DHT22;16066;0.000;0.000;2023-11-22T18:05:08;17.50;42.60
28959;DHT22;16066;0.000;0.000;2023-11-22T18:07:34;17.50;42.00
28959;DHT22;16066;0.000;0.000;2023-11-22T18:10:00;17.50;42.60
28959;DHT22;16066;0.000;0.000;2023-11-22T18:12:25;17.50;42.10
28959;DHT22;16066;0.000;0.000;2023-11-22T18:14:51;17.40;42.50
28959;DHT22;16066;0.000;0.000;2023-11-22T18:17:16;17.40;42.30
28959;DHT22;16066;0.000;0.000;2023-11-22T18:19:43;17.40;42.60
28959;DHT22;16066;0.000;0.000;2023-11-22T18:22:09;17.40;42.80
28959;DHT22;16066;0.000;0.000;2023-11-22T18:24:34;17.40;42.20
28959;DHT22;16066;0.000;0.000;2023-11-22T18:27:00;17.40;42.70
28959;DHT22;16066;0.000;0.000;2023-11-22T18:29:27;17.30;41.80
28959;DHT22;16066;0.000;0.000;2023-11-22T18:31:52;17.30;42.30
28959;DHT22;16066;0.000;0.000;2023-11-22T18:34:18;17.30;42.40
28959;DHT22;16066;0.000;0.000;2023-11-22T18:36:44;17.30;42.80
28959;DHT22;16066;0.000;0.000;2023-11-22T18:39:10;17.30;42.60
28959;DHT22;16066;0.000;0.000;2023-11-22T18:41:35;17.30;42.60
28959;DHT22;16066;0.000;0.000;2023-11-22T18:44:02;17.30;42.50
28959;DHT22;16066;0.000;0.000;2023-11-22T18:46:30;17.20;42.50
28959;DHT22;16066;0.000;0.000;2023-11-22T18:48:56;17.30;42.10
28959;DHT22;16066;0.000;0.000;2023-11-22T18:51:21;17.20;42.20
28959;DHT22;16066;0.000;0.000;2023-11-22T18:53:50;17.20;42.50
28959;DHT22;16066;0.000;0.000;2023-11-22T18:56:15;17.20;42.20
28959;DHT22;16066;0.000;0.000;2023-11-22T18:58:41;17.20;42.40
28959;DHT22;16066;0.000;0.000;2023-11-22T19:01:06;17.20;42.70
28959;DHT22;16066;0.000;0.000;2023-11-22T19:03:32;17.20;43.00
28959;DHT22;16066;0.000;0.000;2023-11-22T19:05:58;17.20;43.50
28959;DHT22;16066;0.000;0.000;2023-11-22T19:08:23;17.30;43.00
28959;DHT22;16066;0.000;0.000;2023-11-22T19:10:49;17.30;43.10
28959;DHT22;16066;0.000;0.000;2023-11-22T19:13:14;17.30;42.80
28959;DHT22;16066;0.000;0.000;2023-11-22T19:15:44;17.20;42.80
28959;DHT22;16066;0.000;0.000;2023-11-22T19:18:11;17.30;43.20
28959;DHT22;16066;0.000;0.000;2023-11-22T19:20:37;17.30;42.80
28959;DHT22;16066;0.000;0.000;2023-11-22T19:23:03;17.30;43.10
28959;DHT22;16066;0.000;0.000;2023-11-22T19:25:29;17.30;42.50
28959;DHT22;16066;0.000;0.000;2023-11-22T19:27:57;17.30;42.80
28959;DHT22;16066;0.000;0.000;2023-11-22T19:30:23;17.20;42.40
28959;DHT22;16066;0.000;0.000;2023-11-22T19:32:48;17.20;43.10
28959;DHT22;16066;0.000;0.000;2023-11-22T19:35:14;17.20;44.10
28959;DHT22;16066;0.000;0.000;2023-11-22T19:37:39;17.20;43.30
28959;DHT22;16066;0.000;0.000;2023-11-22T19:40:06;17.20;42.90
28959;DHT22;16066;0.000;0.000;2023-11-22T19:42:33;17.20;43.00
28959;DHT22;16066;0.000;0.000;2023-11-22T19:44:59;17.20;43.20
28959;DHT22;16066;0.000;0.000;2023-11-22T19:47:25;17.20;43.40
28959;DHT22;16066;0.000;0.000;2023-11-22T19:49:52;17.10;42.60
28959;DHT22;16066;0.000;0.000;2023-11-22T19:52:18;17.10;43.40
28959;DHT22;16066;0.000;0.000;2023-11-22T19:54:43;17.10;43.10
28959;DHT22;16066;0.000;0.000;2023-11-22T19:57:09;17.20;43.60
28959;DHT22;16066;0.000;0.000;2023-11-22T19:59:35;17.20;43.20
28959;DHT22;16066;0.000;0.000;2023-11-22T20:02:00;17.20;43.60
28959;DHT22;16066;0.000;0.000;2023-11-22T20:04:27;17.20;43.40
28959;DHT22;16066;0.000;0.000;2023-11-22T20:06:53;17.20;43.90
28959;DHT22;16066;0.000;0.000;2023-11-22T20:09:18;17.30;44.60
28959;DHT22;16066;0.000;0.000;2023-11-22T20:11:44;17.30;44.30
28959;DHT22;16066;0.000;0.000;2023-11-22T20:14:09;17.30;43.90
28959;DHT22;16066;0.000;0.000;2023-11-22T20:16:35;17.30;43.50
28959;DHT22;16066;0.000;0.000;2023-11-22T20:19:01;17.30;43.50
28959;DHT22;16066;0.000;0.000;2023-11-22T20:21:26;17.30;43.70
28959;DHT22;16066;0.000;0.000;2023-11-22T20:23:52;17.40;44.10
28959;DHT22;16066;0.000;0.000;2023-11-22T20:26:18;17.40;43.90
28959;DHT22;16066;0.000;0.000;2023-11-22T20:28:44;17.40;43.50
28959;DHT22;16066;0.000;0.000;2023-11-22T20:31:11;17.40;44.00
28959;DHT22;16066;0.000;0.000;2023-11-22T20:33:37;17.40;43.60
28959;DHT22;16066;0.000;0.000;2023-11-22T20:36:04;17.40;44.20
28959;DHT22;16066;0.000;0.000;2023-11-22T20:38:30;17.40;43.80
28959;DHT22;16066;0.000;0.000;2023-11-22T20:40:56;17.40;44.10
28959;DHT22;16066;0.000;0.000;2023-11-22T20:43:22;17.40;44.20
28959;DHT22;16066;0.000;0.000;2023-11-22T20:45:48;17.40;44.60
28959;DHT22;16066;0.000;0.000;2023-11-22T20:48:13;17.50;44.30
28959;DHT22;16066;0.000;0.000;2023-11-22T20:50:39;17.50;44.40
28959;DHT22;16066;0.000;0.000;2023-11-22T20:53:06;17.50;44.20
28959;DHT22;16066;0.000;0.000;2023-11-22T20:55:31;17.50;44.70
28959;DHT22;16066;0.000;0.000;2023-11-22T20:57:57;17.60;44.50
28959;DHT22;16066;0.000;0.000;2023-11-22T21:00:22;17.60;44.60
28959;DHT22;16066;0.000;0.000;2023-11-22T21:02:48;17.60;44.30
28959;DHT22;16066;0.000;0.000;2023-11-22T21:05:13;17.60;44.70
28959;DHT22;16066;0.000;0.000;2023-11-22T21:07:39;17.50;44.70
28959;DHT22;16066;0.000;0.000;2023-11-22T21:10:05;17.50;44.70
28959;DHT22;16066;0.000;0.000;2023-11-22T21:12:31;17.50;44.20
28959;DHT22;16066;0.000;0.000;2023-11-22T21:14:56;17.40;44.60
28959;DHT22;16066;0.000;0.000;2023-11-22T21:17:24;17.40;44.60
28959;DHT22;16066;0.000;0.000;2023-11-22T21:19:52;17.40;44.00
28959;DHT22;16066;0.000;0.000;2023-11-22T21:22:17;17.30;43.90
28959;DHT22;16066;0.000;0.000;2023-11-22T21:24:43;17.30;43.70
28959;DHT22;16066;0.000;0.000;2023-11-22T21:27:08;17.20;43.70
28959;DHT22;16066;0.000;0.000;2023-11-22T21:29:34;17.20;43.70
28959;DHT22;16066;0.000;0.000;2023-11-22T21:31:59;17.10;43.60
28959;DHT22;16066;0.000;0.000;2023-11-22T21:34:25;17.10;43.80
28959;DHT22;16066;0.000;0.000;2023-11-22T21:36:51;17.10;43.80
28959;DHT22;16066;0.000;0.000;2023-11-22T21:39:18;17.00;43.70
28959;DHT22;16066;0.000;0.000;2023-11-22T21:41:45;17.00;43.80
28959;DHT22;16066;0.000;0.000;2023-11-22T21:44:10;17.00;43.90
28959;DHT22;16066;0.000;0.000;2023-11-22T21:46:36;17.00;43.20
28959;DHT22;16066;0.000;0.000;2023-11-22T21:49:02;16.90;43.50
28959;DHT22;16066;0.000;0.000;2023-11-22T21:51:31;16.90;44.10
28959;DHT22;16066;0.000;0.000;2023-11-22T21:53:57;17.00;43.40
28959;DHT22;16066;0.000;0.000;2023-11-22T21:56:22;16.90;43.30
28959;DHT22;16066;0.000;0.000;2023-11-22T21:58:48;16.90;43.90
28959;DHT22;16066;0.000;0.000;2023-11-22T22:01:14;16.90;43.10
28959;DHT22;16066;0.000;0.000;2023-11-22T22:03:40;16.90;43.90
28959;DHT22;16066;0.000;0.000;2023-11-22T22:06:06;16.90;43.70
28959;DHT22;16066;0.000;0.000;2023-11-22T22:08:32;16.90;43.90
28959;DHT22;16066;0.000;0.000;2023-11-22T22:10:58;16.90;43.70
28959;DHT22;16066;0.000;0.000;2023-11-22T22:13:25;16.90;43.90
28959;DHT22;16066;0.000;0.000;2023-11-22T22:15:50;16.90;43.90